sensor_id;sensor_type;location;lat;lon;timestamp;temperature;humidity
57444;DHT22;43289;52.962;6.196;2023-06-14T05:15:19;17.40;99.90
57444;DHT22;43289;52.962;6.196;2023-06-14T05:25:12;16.00;99.90
57444;DHT22;43289;52.962;6.196;2023-06-14T05:27:37;16.20;99.90
57444;DHT22;43289;52.962;6.196;2023-06-14T06:16:19;16.30;99.90
57444;DHT22;43289;52.962;6.196;2023-06-14T06:21:10;18.40;99.90
57444;DHT22;43289;52.962;6.196;2023-06-14T06:23:36;18.60;99.90
57444;DHT22;43289;52.962;6.196;2023-06-14T06:28:28;18.70;99.90
57444;DHT22;43289;52.962;6.196;2023-06-14T06:40:38;19.00;99.90
57444;DHT22;43289;52.962;6.196;2023-06-14T06:43:03;19.60;99.90
57444;DHT22;43289;52.962;6.196;2023-06-14T06:45:29;19.70;99.90
57444;DHT22;43289;52.962;6.196;2023-06-14T06:47:54;19.90;99.90
57444;DHT22;43289;52.962;6.196;2023-06-14T06:50:21;20.00;99.90
57444;DHT22;43289;52.962;6.196;2023-06-14T06:52:48;20.20;99.90
57444;DHT22;43289;52.962;6.196;2023-06-14T06:55:14;20.30;99.90
57444;DHT22;43289;52.962;6.196;2023-06-14T06:57:40;20.40;99.90
57444;DHT22;43289;52.962;6.196;2023-06-14T07:00:06;20.50;99.90
57444;DHT22;43289;52.962;6.196;2023-06-14T07:02:36;20.60;99.90
57444;DHT22;43289;52.962;6.196;2023-06-14T07:05:02;20.70;99.90
57444;DHT22;43289;52.962;6.196;2023-06-14T07:07:27;20.90;99.90
57444;DHT22;43289;52.962;6.196;2023-06-14T07:09:53;21.00;99.90
57444;DHT22;43289;52.962;6.196;2023-06-14T07:12:36;21.10;99.90
57444;DHT22;43289;52.962;6.196;2023-06-14T07:15:06;21.30;99.90
57444;DHT22;43289;52.962;6.196;2023-06-14T07:17:32;21.40;99.90
57444;DHT22;43289;52.962;6.196;2023-06-14T07:19:57;21.60;99.90
57444;DHT22;43289;52.962;6.196;2023-06-14T07:22:23;21.70;99.90
57444;DHT22;43289;52.962;6.196;2023-06-14T07:24:49;21.80;99.90
57444;DHT22;43289;52.962;6.196;2023-06-14T07:27:15;21.90;99.90
57444;DHT22;43289;52.962;6.196;2023-06-14T07:29:40;22.00;99.90
57444;DHT22;43289;52.962;6.196;2023-06-14T07:32:06;22.10;99.90
57444;DHT22;43289;52.962;6.196;2023-06-14T07:34:32;22.20;99.90
57444;DHT22;43289;52.962;6.196;2023-06-14T07:36:57;22.40;99.90
57444;DHT22;43289;52.962;6.196;2023-06-14T07:39:23;22.40;99.90
57444;DHT22;43289;52.962;6.196;2023-06-14T07:41:48;22.60;99.90
57444;DHT22;43289;52.962;6.196;2023-06-14T07:44:14;22.70;99.90
57444;DHT22;43289;52.962;6.196;2023-06-14T07:46:41;22.70;99.90
57444;DHT22;43289;52.962;6.196;2023-06-14T07:49:06;22.80;99.90
57444;DHT22;43289;52.962;6.196;2023-06-14T07:51:32;22.80;99.90
57444;DHT22;43289;52.962;6.196;2023-06-14T07:53:59;22.90;99.90
57444;DHT22;43289;52.962;6.196;2023-06-14T07:58:52;23.00;99.90
57444;DHT22;43289;52.962;6.196;2023-06-14T08:01:17;23.30;99.90
57444;DHT22;43289;52.962;6.196;2023-06-14T08:03:45;23.40;99.90
57444;DHT22;43289;52.962;6.196;2023-06-14T08:06:11;23.40;99.90
57444;DHT22;43289;52.962;6.196;2023-06-14T08:08:37;23.50;99.90
57444;DHT22;43289;52.962;6.196;2023-06-14T08:11:02;23.40;99.90
57444;DHT22;43289;52.962;6.196;2023-06-14T08:13:28;23.50;99.90
57444;DHT22;43289;52.962;6.196;2023-06-14T08:15:53;23.60;99.90
57444;DHT22;43289;52.962;6.196;2023-06-14T08:18:19;23.70;99.90
57444;DHT22;43289;52.962;6.196;2023-06-14T08:20:45;23.80;99.90
57444;DHT22;43289;52.962;6.196;2023-06-14T08:23:10;23.80;99.90
57444;DHT22;43289;52.962;6.196;2023-06-14T08:25:36;23.80;99.90
57444;DHT22;43289;52.962;6.196;2023-06-14T08:28:02;23.80;99.90
57444;DHT22;43289;52.962;6.196;2023-06-14T08:30:27;24.00;99.90
57444;DHT22;43289;52.962;6.196;2023-06-14T08:32:53;24.00;99.90
57444;DHT22;43289;52.962;6.196;2023-06-14T08:35:21;24.10;99.90
57444;DHT22;43289;52.962;6.196;2023-06-14T08:37:46;24.00;99.90
57444;DHT22;43289;52.962;6.196;2023-06-14T08:43:19;24.20;99.90
57444;DHT22;43289;52.962;6.196;2023-06-14T08:45:46;24.30;99.90
57444;DHT22;43289;52.962;6.196;2023-06-14T08:48:14;24.50;99.90
57444;DHT22;43289;52.962;6.196;2023-06-14T08:50:43;24.50;99.90
57444;DHT22;43289;52.962;6.196;2023-06-14T08:53:12;24.70;99.90
57444;DHT22;43289;52.962;6.196;2023-06-14T08:55:45;25.00;99.90
57444;DHT22;43289;52.962;6.196;2023-06-14T08:58:11;24.80;99.90
57444;DHT22;43289;52.962;6.196;2023-06-14T09:00:40;24.80;99.90
57444;DHT22;43289;52.962;6.196;2023-06-14T09:03:08;24.80;99.90
57444;DHT22;43289;52.962;6.196;2023-06-14T09:05:39;24.90;99.90
57444;DHT22;43289;52.962;6.196;2023-06-14T09:08:05;25.00;99.90
57444;DHT22;43289;52.962;6.196;2023-06-14T09:10:31;25.10;99.90
57444;DHT22;43289;52.962;6.196;2023-06-14T09:13:03;25.10;99.90
57444;DHT22;43289;52.962;6.196;2023-06-14T09:15:29;25.00;99.90
57444;DHT22;43289;52.962;6.196;2023-06-14T09:17:55;25.00;99.90
57444;DHT22;43289;52.962;6.196;2023-06-14T09:20:21;25.00;99.90
57444;DHT22;43289;52.962;6.196;2023-06-14T09:22:46;25.00;99.90
57444;DHT22;43289;52.962;6.196;2023-06-14T09:25:12;25.20;99.90
57444;DHT22;43289;52.962;6.196;2023-06-14T09:27:40;25.30;99.90
57444;DHT22;43289;52.962;6.196;2023-06-14T09:30:09;25.50;99.90
57444;DHT22;43289;52.962;6.196;2023-06-14T09:32:41;25.60;99.90
57444;DHT22;43289;52.962;6.196;2023-06-14T09:35:07;25.70;99.90
57444;DHT22;43289;52.962;6.196;2023-06-14T09:37:34;25.80;99.90
57444;DHT22;43289;52.962;6.196;2023-06-14T09:40:00;25.90;99.90
57444;DHT22;43289;52.962;6.196;2023-06-14T09:42:26;25.90;99.90
57444;DHT22;43289;52.962;6.196;2023-06-14T09:44:54;25.80;99.90
57444;DHT22;43289;52.962;6.196;2023-06-14T09:47:20;25.70;99.90
57444;DHT22;43289;52.962;6.196;2023-06-14T09:49:46;25.70;99.90
57444;DHT22;43289;52.962;6.196;2023-06-14T09:52:18;26.00;99.90
57444;DHT22;43289;52.962;6.196;2023-06-14T09:54:46;26.10;99.90
57444;DHT22;43289;52.962;6.196;2023-06-14T09:57:14;26.30;99.90
57444;DHT22;43289;52.962;6.196;2023-06-14T09:59:58;26.60;99.90
57444;DHT22;43289;52.962;6.196;2023-06-14T10:02:27;26.70;99.90
57444;DHT22;43289;52.962;6.196;2023-06-14T10:05:13;26.90;99.90
57444;DHT22;43289;52.962;6.196;2023-06-14T10:08:04;27.00;99.90
57444;DHT22;43289;52.962;6.196;2023-06-14T10:10:30;26.80;99.90
57444;DHT22;43289;52.962;6.196;2023-06-14T10:12:56;26.80;99.90
57444;DHT22;43289;52.962;6.196;2023-06-14T10:15:47;26.60;99.90
57444;DHT22;43289;52.962;6.196;2023-06-14T10:18:49;26.50;99.90
57444;DHT22;43289;52.962;6.196;2023-06-14T10:21:36;26.50;99.90
57444;DHT22;43289;52.962;6.196;2023-06-14T10:24:07;26.70;99.90
57444;DHT22;43289;52.962;6.196;2023-06-14T10:26:34;26.80;99.90
57444;DHT22;43289;52.962;6.196;2023-06-14T10:29:05;27.00;99.90
57444;DHT22;43289;52.962;6.196;2023-06-14T10:31:49;27.10;99.90
57444;DHT22;43289;52.962;6.196;2023-06-14T10:34:25;27.40;99.90
57444;DHT22;43289;52.962;6.196;2023-06-14T10:37:11;27.40;99.90
57444;DHT22;43289;52.962;6.196;2023-06-14T10:39:43;27.60;99.90
57444;DHT22;43289;52.962;6.196;2023-06-14T10:42:11;27.70;99.90
57444;DHT22;43289;52.962;6.196;2023-06-14T10:44:45;27.60;99.90
57444;DHT22;43289;52.962;6.196;2023-06-14T10:47:21;27.60;99.90
57444;DHT22;43289;52.962;6.196;2023-06-14T10:50:04;27.30;99.90
57444;DHT22;43289;52.962;6.196;2023-06-14T10:52:34;27.40;99.90
57444;DHT22;43289;52.962;6.196;2023-06-14T10:55:13;27.50;99.90
57444;DHT22;43289;52.962;6.196;2023-06-14T10:57:54;27.80;99.90
57444;DHT22;43289;52.962;6.196;2023-06-14T11:26:27;28.10;99.90
57444;DHT22;43289;52.962;6.196;2023-06-14T11:29:00;28.40;99.90
57444;DHT22;43289;52.962;6.196;2023-06-14T11:31:26;28.50;99.90
57444;DHT22;43289;52.962;6.196;2023-06-14T11:33:56;28.50;99.90
57444;DHT22;43289;52.962;6.196;2023-06-14T11:36:22;28.70;99.90
57444;DHT22;43289;52.962;6.196;2023-06-14T11:38:48;28.70;99.90
57444;DHT22;43289;52.962;6.196;2023-06-14T11:41:17;28.70;99.90
57444;DHT22;43289;52.962;6.196;2023-06-14T11:43:43;28.80;99.90
57444;DHT22;43289;52.962;6.196;2023-06-14T11:46:14;28.90;99.90
57444;DHT22;43289;52.962;6.196;2023-06-14T11:48:47;29.20;99.90
57444;DHT22;43289;52.962;6.196;2023-06-14T11:51:12;29.20;99.90
57444;DHT22;43289;52.962;6.196;2023-06-14T11:53:38;29.10;99.90
57444;DHT22;43289;52.962;6.196;2023-06-14T11:56:04;29.20;99.90
57444;DHT22;43289;52.962;6.196;2023-06-14T11:58:30;29.10;99.90
57444;DHT22;43289;52.962;6.196;2023-06-14T12:00:58;29.10;99.90
57444;DHT22;43289;52.962;6.196;2023-06-14T12:03:24;29.10;99.90
57444;DHT22;43289;52.962;6.196;2023-06-14T12:06:05;29.10;99.90
57444;DHT22;43289;52.962;6.196;2023-06-14T12:18:38;29.40;99.90
57444;DHT22;43289;52.962;6.196;2023-06-14T12:21:08;29.20;99.90
57444;DHT22;43289;52.962;6.196;2023-06-14T12:23:49;29.10;99.90
57444;DHT22;43289;52.962;6.196;2023-06-14T12:26:19;29.50;99.90
57444;DHT22;43289;52.962;6.196;2023-06-14T12:45:50;29.80;99.90
57444;DHT22;43289;52.962;6.196;2023-06-14T13:20:07;30.50;99.90
57444;DHT22;43289;52.962;6.196;2023-06-14T13:22:36;32.10;99.90
57444;DHT22;43289;52.962;6.196;2023-06-14T13:25:03;32.20;99.90
57444;DHT22;43289;52.962;6.196;2023-06-14T13:27:29;32.30;99.90
57444;DHT22;43289;52.962;6.196;2023-06-14T13:29:54;32.20;99.90
57444;DHT22;43289;52.962;6.196;2023-06-14T13:32:24;31.80;99.90
57444;DHT22;43289;52.962;6.196;2023-06-14T13:34:52;31.60;99.90
57444;DHT22;43289;52.962;6.196;2023-06-14T13:37:18;31.60;99.90
57444;DHT22;43289;52.962;6.196;2023-06-14T13:39:43;31.70;99.90
57444;DHT22;43289;52.962;6.196;2023-06-14T13:42:09;31.70;99.90
57444;DHT22;43289;52.962;6.196;2023-06-14T13:44:36;31.90;99.90
57444;DHT22;43289;52.962;6.196;2023-06-14T13:47:01;32.20;99.90
57444;DHT22;43289;52.962;6.196;2023-06-14T13:49:27;32.30;99.90
57444;DHT22;43289;52.962;6.196;2023-06-14T13:51:52;32.30;99.90
57444;DHT22;43289;52.962;6.196;2023-06-14T13:54:20;32.20;99.90
57444;DHT22;43289;52.962;6.196;2023-06-14T13:56:46;32.40;99.90
57444;DHT22;43289;52.962;6.196;2023-06-14T13:59:12;32.20;99.90
57444;DHT22;43289;52.962;6.196;2023-06-14T14:01:38;32.00;99.90
57444;DHT22;43289;52.962;6.196;2023-06-14T14:04:04;31.90;99.90
57444;DHT22;43289;52.962;6.196;2023-06-14T14:06:30;32.00;99.90
57444;DHT22;43289;52.962;6.196;2023-06-14T14:08:56;31.70;99.90
57444;DHT22;43289;52.962;6.196;2023-06-14T14:11:22;31.90;99.90
57444;DHT22;43289;52.962;6.196;2023-06-14T14:13:48;32.30;99.90
57444;DHT22;43289;52.962;6.196;2023-06-14T14:16:14;32.80;99.90
57444;DHT22;43289;52.962;6.196;2023-06-14T14:18:40;33.00;99.90
57444;DHT22;43289;52.962;6.196;2023-06-14T14:21:05;32.90;99.90
57444;DHT22;43289;52.962;6.196;2023-06-14T14:23:31;32.90;99.90
57444;DHT22;43289;52.962;6.196;2023-06-14T14:25:57;33.20;99.90
57444;DHT22;43289;52.962;6.196;2023-06-14T14:28:22;33.30;99.90
57444;DHT22;43289;52.962;6.196;2023-06-14T14:30:48;33.50;99.90
57444;DHT22;43289;52.962;6.196;2023-06-14T14:43:07;32.80;99.90
57444;DHT22;43289;52.962;6.196;2023-06-14T14:45:33;33.40;99.90
57444;DHT22;43289;52.962;6.196;2023-06-14T14:48:00;33.80;99.90
57444;DHT22;43289;52.962;6.196;2023-06-14T14:50:26;34.20;99.90
57444;DHT22;43289;52.962;6.196;2023-06-14T14:52:52;33.90;99.90
57444;DHT22;43289;52.962;6.196;2023-06-14T14:55:17;33.10;99.90
57444;DHT22;43289;52.962;6.196;2023-06-14T14:57:45;32.40;99.90
57444;DHT22;43289;52.962;6.196;2023-06-14T15:00:11;32.80;99.90
57444;DHT22;43289;52.962;6.196;2023-06-14T15:02:36;33.30;99.90
57444;DHT22;43289;52.962;6.196;2023-06-14T15:05:02;33.90;99.90
57444;DHT22;43289;52.962;6.196;2023-06-14T15:07:28;34.30;99.90
57444;DHT22;43289;52.962;6.196;2023-06-14T15:09:54;34.20;99.90
57444;DHT22;43289;52.962;6.196;2023-06-14T15:12:20;33.70;99.90
57444;DHT22;43289;52.962;6.196;2023-06-14T15:14:50;33.80;99.90
57444;DHT22;43289;52.962;6.196;2023-06-14T15:22:09;33.70;99.90
57444;DHT22;43289;52.962;6.196;2023-06-14T15:24:35;31.30;99.90
57444;DHT22;43289;52.962;6.196;2023-06-14T15:29:26;30.80;99.90
57444;DHT22;43289;52.962;6.196;2023-06-14T15:31:52;30.70;99.90
57444;DHT22;43289;52.962;6.196;2023-06-14T15:34:20;31.20;99.90
57444;DHT22;43289;52.962;6.196;2023-06-14T15:36:45;31.50;99.90
57444;DHT22;43289;52.962;6.196;2023-06-14T15:44:03;32.20;99.90
57444;DHT22;43289;52.962;6.196;2023-06-14T15:51:21;31.80;99.90
57444;DHT22;43289;52.962;6.196;2023-06-14T15:53:47;30.30;99.90
57444;DHT22;43289;52.962;6.196;2023-06-14T15:56:13;30.00;99.90
57444;DHT22;43289;52.962;6.196;2023-06-14T15:58:38;30.80;99.90
57444;DHT22;43289;52.962;6.196;2023-06-14T16:05:56;31.70;99.90
57444;DHT22;43289;52.962;6.196;2023-06-14T16:08:21;33.30;99.90
57444;DHT22;43289;52.962;6.196;2023-06-14T16:13:13;32.90;99.90
57444;DHT22;43289;52.962;6.196;2023-06-14T16:15:38;30.80;99.90
57444;DHT22;43289;52.962;6.196;2023-06-14T16:18:04;30.20;99.90
57444;DHT22;43289;52.962;6.196;2023-06-14T16:20:30;30.10;99.90
57444;DHT22;43289;52.962;6.196;2023-06-14T16:22:55;29.70;99.90
57444;DHT22;43289;52.962;6.196;2023-06-14T16:25:21;29.10;99.90
57444;DHT22;43289;52.962;6.196;2023-06-14T16:27:47;28.80;99.90
57444;DHT22;43289;52.962;6.196;2023-06-14T16:30:12;28.70;99.90
57444;DHT22;43289;52.962;6.196;2023-06-14T16:35:04;28.60;99.90
57444;DHT22;43289;52.962;6.196;2023-06-14T16:37:30;28.20;99.90
57444;DHT22;43289;52.962;6.196;2023-06-14T16:39:55;28.20;99.90
57444;DHT22;43289;52.962;6.196;2023-06-14T16:42:21;28.10;99.90
57444;DHT22;43289;52.962;6.196;2023-06-14T16:44:47;27.80;99.90
57444;DHT22;43289;52.962;6.196;2023-06-14T16:47:12;27.60;99.90
57444;DHT22;43289;52.962;6.196;2023-06-14T16:49:38;27.30;99.90
57444;DHT22;43289;52.962;6.196;2023-06-14T16:52:04;27.30;99.90
57444;DHT22;43289;52.962;6.196;2023-06-14T16:56:55;27.10;99.90
57444;DHT22;43289;52.962;6.196;2023-06-14T16:59:21;26.80;99.90
57444;DHT22;43289;52.962;6.196;2023-06-14T17:01:50;26.80;99.90
57444;DHT22;43289;52.962;6.196;2023-06-14T17:04:16;26.80;99.90
57444;DHT22;43289;52.962;6.196;2023-06-14T17:06:41;26.70;99.90
57444;DHT22;43289;52.962;6.196;2023-06-14T17:09:07;26.80;99.90
57444;DHT22;43289;52.962;6.196;2023-06-14T17:11:33;26.80;99.90
57444;DHT22;43289;52.962;6.196;2023-06-14T17:13:59;27.00;99.90
57444;DHT22;43289;52.962;6.196;2023-06-14T17:16:25;27.10;99.90
57444;DHT22;43289;52.962;6.196;2023-06-14T17:18:51;26.80;99.90
57444;DHT22;43289;52.962;6.196;2023-06-14T17:21:16;26.60;99.90
57444;DHT22;43289;52.962;6.196;2023-06-14T17:23:42;26.30;99.90
57444;DHT22;43289;52.962;6.196;2023-06-14T17:26:08;26.00;99.90
57444;DHT22;43289;52.962;6.196;2023-06-14T17:28:34;25.80;99.90
57444;DHT22;43289;52.962;6.196;2023-06-14T17:31:00;25.60;99.90
57444;DHT22;43289;52.962;6.196;2023-06-14T17:33:26;25.40;99.90
57444;DHT22;43289;52.962;6.196;2023-06-14T17:35:51;25.30;99.90
57444;DHT22;43289;52.962;6.196;2023-06-14T17:38:17;25.30;99.90
57444;DHT22;43289;52.962;6.196;2023-06-14T17:40:42;25.30;99.90
57444;DHT22;43289;52.962;6.196;2023-06-14T17:43:08;25.20;99.90
57444;DHT22;43289;52.962;6.196;2023-06-14T17:45:33;25.30;99.90
57444;DHT22;43289;52.962;6.196;2023-06-14T17:47:59;25.30;99.90
57444;DHT22;43289;52.962;6.196;2023-06-14T17:50:26;25.40;99.90
57444;DHT22;43289;52.962;6.196;2023-06-14T17:52:51;25.40;99.90
57444;DHT22;43289;52.962;6.196;2023-06-14T17:55:17;25.30;99.90
57444;DHT22;43289;52.962;6.196;2023-06-14T17:57:43;25.30;99.90
57444;DHT22;43289;52.962;6.196;2023-06-14T18:00:09;25.20;99.90
57444;DHT22;43289;52.962;6.196;2023-06-14T18:02:34;25.10;99.90
57444;DHT22;43289;52.962;6.196;2023-06-14T18:05:01;24.80;99.90
57444;DHT22;43289;52.962;6.196;2023-06-14T18:07:26;24.60;99.90
57444;DHT22;43289;52.962;6.196;2023-06-14T18:09:53;24.50;99.90
57444;DHT22;43289;52.962;6.196;2023-06-14T18:12:18;24.10;99.90
57444;DHT22;43289;52.962;6.196;2023-06-14T18:14:44;24.00;99.90
57444;DHT22;43289;52.962;6.196;2023-06-14T18:19:36;23.70;99.90
57444;DHT22;43289;52.962;6.196;2023-06-14T18:22:02;23.50;99.90
57444;DHT22;43289;52.962;6.196;2023-06-14T18:24:30;23.40;99.90
57444;DHT22;43289;52.962;6.196;2023-06-14T18:26:55;23.30;99.90
57444;DHT22;43289;52.962;6.196;2023-06-14T18:29:21;23.20;99.90
57444;DHT22;43289;52.962;6.196;2023-06-14T18:31:46;23.20;99.90
57444;DHT22;43289;52.962;6.196;2023-06-14T18:34:12;23.10;99.90
57444;DHT22;43289;52.962;6.196;2023-06-14T18:36:38;23.10;99.90
57444;DHT22;43289;52.962;6.196;2023-06-14T18:39:05;23.00;99.90
57444;DHT22;43289;52.962;6.196;2023-06-14T18:41:31;23.00;99.90
57444;DHT22;43289;52.962;6.196;2023-06-14T18:43:57;23.00;99.90
57444;DHT22;43289;52.962;6.196;2023-06-14T18:46:23;23.00;99.90
57444;DHT22;43289;52.962;6.196;2023-06-14T18:48:48;23.00;99.90
57444;DHT22;43289;52.962;6.196;2023-06-14T18:51:14;23.00;99.90
57444;DHT22;43289;52.962;6.196;2023-06-14T18:53:40;23.00;99.90
57444;DHT22;43289;52.962;6.196;2023-06-14T18:56:06;23.00;99.90
57444;DHT22;43289;52.962;6.196;2023-06-14T18:58:32;23.10;99.90
57444;DHT22;43289;52.962;6.196;2023-06-14T19:00:57;23.00;99.90
57444;DHT22;43289;52.962;6.196;2023-06-14T19:03:23;22.90;99.90
57444;DHT22;43289;52.962;6.196;2023-06-14T19:05:48;22.80;99.90
57444;DHT22;43289;52.962;6.196;2023-06-14T19:08:16;22.70;99.90
57444;DHT22;43289;52.962;6.196;2023-06-14T19:10:41;22.60;99.90
57444;DHT22;43289;52.962;6.196;2023-06-14T19:13:07;22.60;99.90
57444;DHT22;43289;52.962;6.196;2023-06-14T19:15:36;22.50;99.90
